createdAt,value
2019-05-14T00:02:31.675Z,3.00
2019-05-14T00:05:01.945Z,3.30
2019-05-14T00:07:32.279Z,3.33
2019-05-14T00:10:02.704Z,3.60
2019-05-14T00:12:34.243Z,3.27
2019-05-14T00:15:04.799Z,3.43
2019-05-14T00:17:35.317Z,3.30
2019-05-14T00:20:09.833Z,2.97
2019-05-14T00:22:38.590Z,2.80
2019-05-14T00:25:11.683Z,3.50
2019-05-14T00:27:42.335Z,3.40
2019-05-14T00:30:13.026Z,3.67
2019-05-14T00:32:43.649Z,3.00
2019-05-14T00:35:15.568Z,3.40
2019-05-14T00:37:46.776Z,3.20
2019-05-14T00:40:17.822Z,3.23
2019-05-14T00:42:48.122Z,3.30
2019-05-14T00:45:18.977Z,3.33
2019-05-14T00:47:49.306Z,3.37
2019-05-14T00:50:21.574Z,3.43
2019-05-14T00:52:52.058Z,3.50
2019-05-14T00:55:51.672Z,3.17
2019-05-14T00:58:52.343Z,2.93
2019-05-14T01:01:22.938Z,3.30
2019-05-14T01:03:53.178Z,3.10
2019-05-14T01:06:23.569Z,2.80
2019-05-14T01:08:53.982Z,3.30
2019-05-14T01:11:24.327Z,3.00
2019-05-14T01:13:54.565Z,3.30
2019-05-14T01:16:24.823Z,3.20
2019-05-14T01:18:55.227Z,3.20
2019-05-14T01:21:25.774Z,3.73
2019-05-14T01:23:56.092Z,3.27
2019-05-14T01:26:27.583Z,3.20
2019-05-14T01:28:57.963Z,3.37
2019-05-14T01:31:28.220Z,3.40
2019-05-14T01:33:58.526Z,3.10
2019-05-14T01:36:28.875Z,3.47
2019-05-14T01:39:01.596Z,3.53
2019-05-14T01:41:33.097Z,3.33
2019-05-14T01:44:03.465Z,3.40
2019-05-14T01:46:33.822Z,3.27
2019-05-14T01:49:04.043Z,3.57
2019-05-14T01:51:34.533Z,3.27
2019-05-14T01:54:04.874Z,3.33
2019-05-14T01:56:36.844Z,3.43
2019-05-14T01:59:08.830Z,3.77
2019-05-14T02:01:41.123Z,2.97
2019-05-14T02:04:11.782Z,3.37
2019-05-14T02:06:42.184Z,3.30
2019-05-14T02:09:12.431Z,3.57
2019-05-14T02:11:42.724Z,3.80
2019-05-14T02:14:13.207Z,3.57
2019-05-14T02:16:43.503Z,3.13
2019-05-14T02:19:13.832Z,3.33
2019-05-14T02:21:44.089Z,3.87
2019-05-14T02:24:14.478Z,4.00
2019-05-14T02:26:44.880Z,3.27
2019-05-14T02:29:15.218Z,3.50
2019-05-14T02:31:46.433Z,3.37
2019-05-14T02:34:19.836Z,3.57
2019-05-14T02:36:50.623Z,3.67
2019-05-14T02:39:20.896Z,3.23
2019-05-14T02:41:52.799Z,3.33
2019-05-14T02:44:23.064Z,3.10
2019-05-14T02:46:53.272Z,3.47
2019-05-14T02:49:23.649Z,3.30
2019-05-14T02:51:53.883Z,3.63
2019-05-14T02:54:24.209Z,3.10
2019-05-14T02:56:54.527Z,3.63
2019-05-14T02:59:25.145Z,3.60
2019-05-14T03:01:59.059Z,3.30
2019-05-14T03:04:30.034Z,3.53
2019-05-14T03:07:00.684Z,3.33
2019-05-14T03:09:32.233Z,2.97
2019-05-14T03:12:02.678Z,3.07
2019-05-14T03:14:33.430Z,3.50
2019-05-14T03:17:03.786Z,3.30
2019-05-14T03:19:34.158Z,2.80
2019-05-14T03:22:04.390Z,3.50
2019-05-14T03:24:34.657Z,3.20
2019-05-14T03:27:04.868Z,3.63
2019-05-14T03:29:35.171Z,3.53
2019-05-14T03:32:13.176Z,3.27
2019-05-14T03:34:42.900Z,3.53
2019-05-14T03:37:13.878Z,3.50
2019-05-14T03:39:44.674Z,3.33
2019-05-14T03:42:14.978Z,3.70
2019-05-14T03:44:45.382Z,3.37
2019-05-14T03:47:15.602Z,3.67
2019-05-14T03:49:45.843Z,3.20
2019-05-14T03:52:19.621Z,3.63
2019-05-14T03:54:49.771Z,3.77
2019-05-14T03:57:20.408Z,4.07
2019-05-14T03:59:54.035Z,3.70
2019-05-14T04:02:25.455Z,4.10
2019-05-14T04:04:55.982Z,3.73
2019-05-14T04:07:30.077Z,3.53
2019-05-14T04:10:00.681Z,3.33
2019-05-14T04:12:40.049Z,3.60
2019-05-14T04:15:09.787Z,3.53
2019-05-14T04:17:42.682Z,3.70
2019-05-14T04:20:13.350Z,3.40
2019-05-14T04:22:49.963Z,3.30
2019-05-14T04:25:19.557Z,3.50
2019-05-14T04:27:52.599Z,3.73
2019-05-14T04:30:24.700Z,3.40
2019-05-14T04:32:59.399Z,3.40
2019-05-14T04:35:29.755Z,3.43
2019-05-14T04:38:01.436Z,3.80
2019-05-14T04:40:31.888Z,3.40
2019-05-14T04:43:02.328Z,4.20
2019-05-14T04:45:32.606Z,3.33
2019-05-14T04:48:21.508Z,3.33
2019-05-14T04:50:35.106Z,3.40
2019-05-14T04:53:05.528Z,3.37
2019-05-14T04:55:35.751Z,3.73
2019-05-14T04:58:06.172Z,3.23
2019-05-14T05:00:38.908Z,3.93
2019-05-14T05:03:12.732Z,3.80
2019-05-14T05:06:04.075Z,3.80
2019-05-14T05:08:34.477Z,3.37
2019-05-14T05:11:04.853Z,3.27
2019-05-14T05:13:35.263Z,3.87
2019-05-14T05:16:05.643Z,3.50
2019-05-14T05:18:39.725Z,3.40
2019-05-14T05:21:10.354Z,3.77
2019-05-14T05:23:40.687Z,4.03
2019-05-14T05:26:10.995Z,4.40
2019-05-14T05:28:43.233Z,3.67
2019-05-14T05:31:13.576Z,3.50
2019-05-14T05:33:43.836Z,4.10
2019-05-14T05:36:14.069Z,3.70
2019-05-14T05:38:44.521Z,3.73
2019-05-14T05:41:16.008Z,3.40
2019-05-14T05:43:48.365Z,3.50
2019-05-14T05:46:19.182Z,4.00
2019-05-14T05:48:49.890Z,3.70
2019-05-14T05:51:20.177Z,3.70
2019-05-14T05:53:50.518Z,3.83
2019-05-14T05:56:21.946Z,3.50
2019-05-14T05:58:52.192Z,4.03
2019-05-14T06:01:37.471Z,3.73
2019-05-14T06:03:54.436Z,3.70
2019-05-14T06:06:25.739Z,3.87
2019-05-14T06:09:18.249Z,3.67
2019-05-14T06:11:49.019Z,4.30
2019-05-14T06:14:19.418Z,5.00
2019-05-14T06:16:49.653Z,3.90
2019-05-14T06:19:19.951Z,3.93
2019-05-14T06:21:51.397Z,4.33
2019-05-14T06:24:21.690Z,4.10
2019-05-14T06:26:52.030Z,3.83
2019-05-14T06:29:22.357Z,4.00
2019-05-14T06:31:52.586Z,4.20
2019-05-14T06:34:24.051Z,4.30
2019-05-14T06:36:54.410Z,4.27
2019-05-14T06:39:24.713Z,4.03
2019-05-14T06:41:54.963Z,4.33
2019-05-14T06:44:25.312Z,4.17
2019-05-14T06:46:55.635Z,4.50
2019-05-14T06:49:28.936Z,4.50
2019-05-14T06:51:59.673Z,4.20
2019-05-14T06:54:30.117Z,4.50
2019-05-14T06:57:00.402Z,3.83
2019-05-14T06:59:30.725Z,4.70
2019-05-14T07:02:01.861Z,4.43
2019-05-14T07:04:32.143Z,4.40
2019-05-14T07:07:03.406Z,4.50
2019-05-14T07:09:33.617Z,4.03
2019-05-14T07:12:03.930Z,4.43
2019-05-14T07:14:35.201Z,4.13
2019-05-14T07:17:05.503Z,4.37
2019-05-14T07:19:38.582Z,4.17
2019-05-14T07:22:09.554Z,4.60
2019-05-14T07:24:40.893Z,4.80
2019-05-14T07:27:11.362Z,4.20
2019-05-14T07:29:41.851Z,4.00
2019-05-14T07:32:12.340Z,4.20
2019-05-14T07:34:42.651Z,4.57
2019-05-14T07:37:13.959Z,4.30
2019-05-14T07:39:44.242Z,4.40
2019-05-14T07:42:14.812Z,4.33
2019-05-14T07:44:48.514Z,5.03
2019-05-14T07:47:18.916Z,5.23
2019-05-14T07:49:49.346Z,4.63
2019-05-14T07:52:21.210Z,4.60
2019-05-14T07:54:51.482Z,4.40
2019-05-14T07:57:21.824Z,4.40
2019-05-14T07:59:52.205Z,4.60
2019-05-14T08:02:22.479Z,4.50
2019-05-14T08:04:52.737Z,4.60
2019-05-14T08:07:23.132Z,4.90
2019-05-14T08:09:55.083Z,4.50
2019-05-14T08:12:25.365Z,4.27
2019-05-14T08:15:13.401Z,4.30
2019-05-14T08:17:28.191Z,4.70
2019-05-14T08:19:59.753Z,4.80
2019-05-14T08:22:30.226Z,4.90
2019-05-14T08:25:00.561Z,4.73
2019-05-14T08:27:31.320Z,4.40
2019-05-14T08:30:01.708Z,4.47
2019-05-14T08:32:33.170Z,4.27
2019-05-14T08:35:03.457Z,4.60
2019-05-14T08:37:33.771Z,5.00
2019-05-14T08:40:04.188Z,4.30
2019-05-14T08:42:35.255Z,5.00
2019-05-14T08:45:10.581Z,4.43
2019-05-14T08:47:39.067Z,4.50
2019-05-14T08:50:10.860Z,3.93
2019-05-14T08:52:41.145Z,4.37
2019-05-14T08:55:13.868Z,4.37
2019-05-14T08:57:43.556Z,4.27
2019-05-14T09:00:14.348Z,4.10
2019-05-14T09:02:45.048Z,3.83
2019-05-14T09:05:15.500Z,4.20
2019-05-14T09:07:45.984Z,4.07
2019-05-14T09:10:19.078Z,4.50
2019-05-14T09:12:49.129Z,3.30
2019-05-14T09:15:20.738Z,3.27
2019-05-14T09:17:51.205Z,3.50
2019-05-14T09:20:21.512Z,4.07
2019-05-14T09:22:51.824Z,3.63
2019-05-14T09:25:22.116Z,3.37
2019-05-14T09:27:52.383Z,3.50
2019-05-14T09:30:22.981Z,3.10
2019-05-14T09:32:54.578Z,3.23
2019-05-14T09:35:24.935Z,3.30
2019-05-14T09:37:55.225Z,3.33
2019-05-14T09:40:25.591Z,3.70
2019-05-14T09:42:58.492Z,3.53
2019-05-14T09:45:28.248Z,3.70
2019-05-14T09:47:58.686Z,3.27
2019-05-14T09:50:29.252Z,3.73
2019-05-14T09:52:59.631Z,3.37
2019-05-14T09:55:30.840Z,3.57
2019-05-14T09:58:01.134Z,3.33
2019-05-14T10:00:31.661Z,3.63
2019-05-14T10:03:02.117Z,3.70
2019-05-14T10:05:32.804Z,3.10
2019-05-14T10:08:03.186Z,3.27
2019-05-14T10:10:34.615Z,3.47
2019-05-14T10:13:05.189Z,3.47
2019-05-14T10:15:35.679Z,2.90
2019-05-14T10:18:11.095Z,3.03
2019-05-14T10:20:45.510Z,3.07
2019-05-14T10:23:10.120Z,3.50
2019-05-14T10:25:42.470Z,3.20
2019-05-14T10:28:12.548Z,3.07
2019-05-14T10:30:44.505Z,2.77
2019-05-14T10:33:15.263Z,2.77
2019-05-14T10:35:48.185Z,2.20
2019-05-14T10:38:19.005Z,2.30
2019-05-14T10:40:49.571Z,2.57
2019-05-14T10:43:22.015Z,2.33
2019-05-14T10:45:52.460Z,2.23
2019-05-14T10:48:22.726Z,2.10
2019-05-14T10:51:02.649Z,2.50
2019-05-14T10:53:28.683Z,2.37
2019-05-14T10:55:58.385Z,2.13
2019-05-14T10:58:29.229Z,2.43
2019-05-14T11:00:59.631Z,2.13
2019-05-14T11:03:30.343Z,2.27
2019-05-14T11:06:00.702Z,2.23
2019-05-14T11:08:31.049Z,2.30
2019-05-14T11:11:04.583Z,2.30
2019-05-14T11:13:33.428Z,2.10
2019-05-14T11:16:03.675Z,2.30
2019-05-14T11:18:35.583Z,2.30
2019-05-14T11:21:19.805Z,2.20
2019-05-14T11:23:38.678Z,2.30
2019-05-14T11:26:10.039Z,2.20
2019-05-14T11:28:40.300Z,2.40
2019-05-14T11:31:10.670Z,1.90
2019-05-14T11:33:40.957Z,1.80
2019-05-14T11:36:11.156Z,2.10
2019-05-14T11:38:41.466Z,1.80
2019-05-14T11:41:11.744Z,1.70
2019-05-14T11:43:42.011Z,1.83
2019-05-14T11:46:12.395Z,1.73
2019-05-14T11:48:42.877Z,1.83
2019-05-14T11:51:13.246Z,1.70
2019-05-14T11:53:43.490Z,1.83
2019-05-14T11:56:13.979Z,1.90
2019-05-14T11:58:44.488Z,1.60
2019-05-14T12:01:14.714Z,2.00
2019-05-14T12:03:45.267Z,1.87
2019-05-14T12:06:18.364Z,1.77
2019-05-14T12:08:47.848Z,1.97
2019-05-14T12:11:19.249Z,2.10
2019-05-14T12:13:49.899Z,1.90
2019-05-14T12:16:20.284Z,1.97
2019-05-14T12:18:50.614Z,1.90
2019-05-14T12:21:21.028Z,1.90
2019-05-14T12:23:51.532Z,1.90
2019-05-14T12:26:21.807Z,1.97
2019-05-14T12:28:55.953Z,1.67
2019-05-14T12:31:24.373Z,1.70
2019-05-14T12:33:54.768Z,1.90
2019-05-14T12:36:25.200Z,1.90
2019-05-14T12:38:55.491Z,1.93
2019-05-14T12:41:25.745Z,2.20
2019-05-14T12:43:56.047Z,1.73
2019-05-14T12:46:29.256Z,1.50
2019-05-14T12:48:58.981Z,1.80
2019-05-14T12:51:29.934Z,1.63
2019-05-14T12:54:00.339Z,1.50
2019-05-14T12:56:32.959Z,1.60
2019-05-14T12:59:03.533Z,1.90
2019-05-14T13:01:34.107Z,1.60
2019-05-14T13:04:04.559Z,2.10
2019-05-14T13:06:35.037Z,1.97
2019-05-14T13:09:09.197Z,1.70
2019-05-14T13:11:41.493Z,1.60
2019-05-14T13:14:10.734Z,1.70
2019-05-14T13:16:41.161Z,2.00
2019-05-14T13:19:11.416Z,1.90
2019-05-14T13:21:41.679Z,1.70
2019-05-14T13:24:11.964Z,2.07
2019-05-14T13:26:42.326Z,1.93
2019-05-14T13:29:12.624Z,1.80
2019-05-14T13:31:42.909Z,1.63
2019-05-14T13:34:13.127Z,1.63
2019-05-14T13:36:44.911Z,1.80
2019-05-14T13:39:15.530Z,2.20
2019-05-14T13:41:48.487Z,1.50
2019-05-14T13:44:24.581Z,2.00
2019-05-14T13:46:51.637Z,1.40
2019-05-14T13:49:21.978Z,1.37
2019-05-14T13:51:52.274Z,2.00
2019-05-14T13:54:23.875Z,1.50
2019-05-14T13:56:54.247Z,1.70
2019-05-14T13:59:25.539Z,1.70
2019-05-14T14:01:58.843Z,1.60
2019-05-14T14:04:27.842Z,1.50
2019-05-14T14:06:59.155Z,1.63
2019-05-14T14:09:31.438Z,1.73
2019-05-14T14:12:01.485Z,1.80
2019-05-14T14:14:31.816Z,1.57
2019-05-14T14:17:02.123Z,1.77
2019-05-14T14:19:32.467Z,1.70
2019-05-14T14:22:02.732Z,1.90
2019-05-14T14:24:34.712Z,1.70
2019-05-14T14:27:05.035Z,1.57
2019-05-14T14:29:35.410Z,1.60
2019-05-14T14:32:05.722Z,1.40
2019-05-14T14:34:36.028Z,1.63
2019-05-14T14:37:09.240Z,2.03
2019-05-14T14:39:39.763Z,1.80
2019-05-14T14:42:10.468Z,1.53
2019-05-14T14:44:41.043Z,1.80
2019-05-14T14:47:11.592Z,1.70
2019-05-14T14:49:43.658Z,1.70
2019-05-14T14:52:14.276Z,2.07
2019-05-14T14:54:44.680Z,1.80
2019-05-14T14:57:15.025Z,1.50
2019-05-14T14:59:48.378Z,2.17
2019-05-14T15:02:19.748Z,1.40
2019-05-14T15:04:50.214Z,1.43
2019-05-14T15:07:20.720Z,1.80
2019-05-14T15:09:51.119Z,1.63
2019-05-14T15:12:21.424Z,1.80
2019-05-14T15:14:53.361Z,1.83
2019-05-14T15:17:23.710Z,1.60
2019-05-14T15:19:55.157Z,1.37
2019-05-14T15:22:25.496Z,1.70
2019-05-14T15:24:58.391Z,1.90
2019-05-14T15:27:28.385Z,1.80
2019-05-14T15:29:59.483Z,1.70
2019-05-14T15:32:30.406Z,1.40
2019-05-14T15:35:00.904Z,1.90
2019-05-14T15:37:31.593Z,1.57
2019-05-14T15:40:04.150Z,1.50
2019-05-14T15:42:34.377Z,1.60
2019-05-14T15:45:04.860Z,1.47
2019-05-14T15:47:35.287Z,1.50
2019-05-14T15:50:05.877Z,1.73
2019-05-14T15:52:39.411Z,1.77
2019-05-14T15:55:10.901Z,1.43
2019-05-14T15:57:41.310Z,1.20
2019-05-14T16:00:12.069Z,1.27
2019-05-14T16:02:42.432Z,1.90
2019-05-14T16:05:12.808Z,1.30
2019-05-14T16:07:43.277Z,1.40
2019-05-14T16:10:13.690Z,1.50
2019-05-14T16:12:44.215Z,1.43
2019-05-14T16:15:14.734Z,1.70
2019-05-14T16:17:49.900Z,1.30
2019-05-14T16:20:18.846Z,1.40
2019-05-14T16:22:51.616Z,1.63
2019-05-14T16:25:22.110Z,1.13
2019-05-14T16:27:54.346Z,1.50
2019-05-14T16:30:24.585Z,1.60
2019-05-14T16:32:54.940Z,1.53
2019-05-14T16:35:25.297Z,1.63
2019-05-14T16:37:59.140Z,1.80
2019-05-14T16:40:31.429Z,1.50
2019-05-14T16:43:01.775Z,1.60
2019-05-14T16:45:34.096Z,1.30
2019-05-14T16:48:05.550Z,1.30
2019-05-14T16:50:37.199Z,1.40
2019-05-14T16:53:11.296Z,1.70
2019-05-14T16:55:39.488Z,1.60
2019-05-14T16:58:09.937Z,1.80
2019-05-14T17:00:40.362Z,1.63
2019-05-14T17:03:10.833Z,1.50
2019-05-14T17:05:41.168Z,1.47
2019-05-14T17:08:11.523Z,1.30
2019-05-14T17:10:44.073Z,1.40
2019-05-14T17:13:14.558Z,1.30
2019-05-14T17:15:44.851Z,1.47
2019-05-14T17:18:15.411Z,1.77
2019-05-14T17:20:48.639Z,1.40
2019-05-14T17:23:19.281Z,1.20
2019-05-14T17:25:49.746Z,1.57
2019-05-14T17:28:20.120Z,1.30
2019-05-14T17:30:50.508Z,1.30
2019-05-14T17:33:20.986Z,1.10
2019-05-14T17:35:51.439Z,1.80
2019-05-14T17:38:21.855Z,1.40
2019-05-14T17:40:52.193Z,1.40
2019-05-14T17:43:23.302Z,1.30
2019-05-14T17:45:55.215Z,1.43
2019-05-14T17:48:25.583Z,1.60
2019-05-14T17:50:58.791Z,1.20
2019-05-14T17:53:29.804Z,1.30
2019-05-14T17:56:00.304Z,1.60
2019-05-14T17:58:30.647Z,1.40
2019-05-14T18:01:01.002Z,1.77
2019-05-14T18:03:31.678Z,1.70
2019-05-14T18:06:03.682Z,1.43
2019-05-14T18:08:33.955Z,1.70
2019-05-14T18:11:04.349Z,1.50
2019-05-14T18:13:34.773Z,1.73
2019-05-14T18:16:05.269Z,1.40
2019-05-14T18:18:35.720Z,1.57
2019-05-14T18:21:09.387Z,1.20
2019-05-14T18:23:41.878Z,1.40
2019-05-14T18:26:11.322Z,1.70
2019-05-14T18:28:43.873Z,1.47
2019-05-14T18:31:14.417Z,1.40
2019-05-14T18:33:44.802Z,1.70
2019-05-14T18:36:15.198Z,1.50
2019-05-14T18:38:45.820Z,1.37
2019-05-14T18:41:18.678Z,1.60
2019-05-14T18:43:48.282Z,1.40
2019-05-14T18:46:19.227Z,1.50
2019-05-14T18:48:49.875Z,2.00
2019-05-14T18:51:20.296Z,1.40
2019-05-14T18:53:51.689Z,1.53
2019-05-14T18:56:24.489Z,1.60
2019-05-14T18:58:54.547Z,1.50
2019-05-14T19:01:29.118Z,1.40
2019-05-14T19:04:00.656Z,1.57
2019-05-14T19:06:31.152Z,1.63
2019-05-14T19:09:03.696Z,1.40
2019-05-14T19:11:34.337Z,1.50
2019-05-14T19:14:04.842Z,1.70
2019-05-14T19:16:35.481Z,1.80
2019-05-14T19:19:08.065Z,1.80
2019-05-14T19:21:38.484Z,1.70
2019-05-14T19:24:09.108Z,1.60
2019-05-14T19:26:40.653Z,1.43
2019-05-14T19:29:11.023Z,1.73
2019-05-14T19:31:41.380Z,1.37
2019-05-14T19:34:11.882Z,1.87
2019-05-14T19:36:43.331Z,1.50
2019-05-14T19:39:14.755Z,1.60
2019-05-14T19:41:45.421Z,2.00
2019-05-14T19:44:18.920Z,1.93
2019-05-14T19:46:49.232Z,2.00
2019-05-14T19:49:19.977Z,1.87
2019-05-14T19:51:50.411Z,2.10
2019-05-14T19:54:22.223Z,2.03
2019-05-14T19:56:57.104Z,1.93
2019-05-14T19:59:25.979Z,2.30
2019-05-14T20:01:58.812Z,2.13
2019-05-14T20:04:29.189Z,2.33
2019-05-14T20:06:59.908Z,2.20
2019-05-14T20:09:32.430Z,1.97
2019-05-14T20:12:02.765Z,2.13
2019-05-14T20:14:33.227Z,1.93
2019-05-14T20:17:03.690Z,2.13
2019-05-14T20:19:34.172Z,1.90
2019-05-14T20:22:04.845Z,1.77
2019-05-14T20:24:35.940Z,1.77
2019-05-14T20:27:11.824Z,2.13
2019-05-14T20:29:38.600Z,2.20
2019-05-14T20:32:09.129Z,2.00
2019-05-14T20:34:39.679Z,2.23
2019-05-14T20:37:14.076Z,2.40
2019-05-14T20:39:44.431Z,2.67
2019-05-14T20:42:14.979Z,2.20
2019-05-14T20:44:45.407Z,2.30
2019-05-14T20:47:15.798Z,2.57
2019-05-14T20:49:46.152Z,2.50
2019-05-14T20:52:19.395Z,2.60
2019-05-14T20:54:50.196Z,3.00
2019-05-14T20:57:26.795Z,2.40
2019-05-14T21:00:06.353Z,2.20
2019-05-14T21:02:39.461Z,2.20
2019-05-14T21:05:13.510Z,2.07
2019-05-14T21:07:41.388Z,2.10
2019-05-14T21:10:31.064Z,2.10
2019-05-14T21:13:03.162Z,2.20
2019-05-14T21:15:33.529Z,2.00
2019-05-14T21:18:03.907Z,2.17
2019-05-14T21:20:34.245Z,2.10
2019-05-14T21:23:04.647Z,2.13
2019-05-14T21:25:35.089Z,2.50
2019-05-14T21:28:05.548Z,2.17
2019-05-14T21:30:35.885Z,2.20
2019-05-14T21:33:08.319Z,2.30
2019-05-14T21:35:39.053Z,2.20
2019-05-14T21:38:09.686Z,2.30
2019-05-14T21:40:40.057Z,2.17
2019-05-14T21:43:11.337Z,2.20
2019-05-14T21:45:42.044Z,2.20
2019-05-14T21:48:12.638Z,2.27
2019-05-14T21:50:43.105Z,2.03
2019-05-14T21:53:13.797Z,2.30
2019-05-14T21:55:44.142Z,2.40
2019-05-14T21:58:14.516Z,2.10
2019-05-14T22:00:49.194Z,1.90
2019-05-14T22:03:20.800Z,2.33
2019-05-14T22:05:51.785Z,2.23
2019-05-14T22:08:23.111Z,2.10
2019-05-14T22:10:53.392Z,2.17
2019-05-14T22:13:23.608Z,2.60
2019-05-14T22:15:54.119Z,2.30
2019-05-14T22:18:24.397Z,2.47
2019-05-14T22:20:57.839Z,2.20
2019-05-14T22:23:29.199Z,2.17
2019-05-14T22:25:59.695Z,2.10
2019-05-14T22:28:29.991Z,2.30
2019-05-14T22:31:03.843Z,2.33
2019-05-14T22:33:34.325Z,2.60
2019-05-14T22:36:08.527Z,3.00
2019-05-14T22:38:48.220Z,2.40
2019-05-14T22:41:20.596Z,2.63
2019-05-14T22:43:52.388Z,2.37
2019-05-14T22:46:29.341Z,2.30
2019-05-14T22:49:03.500Z,2.13
2019-05-14T22:51:33.367Z,2.70
2019-05-14T22:54:04.759Z,2.50
2019-05-14T22:56:38.730Z,2.30
2019-05-14T22:59:08.187Z,2.50
2019-05-14T23:01:39.124Z,2.20
2019-05-14T23:04:09.572Z,2.47
2019-05-14T23:06:39.873Z,2.90
2019-05-14T23:09:10.312Z,2.60
2019-05-14T23:11:40.579Z,2.30
2019-05-14T23:14:24.725Z,2.37
2019-05-14T23:16:56.659Z,2.53
2019-05-14T23:19:26.963Z,2.17
2019-05-14T23:21:58.825Z,2.50
2019-05-14T23:24:29.088Z,2.53
2019-05-14T23:26:59.342Z,2.20
2019-05-14T23:29:29.759Z,2.30
2019-05-14T23:32:00.227Z,2.40
2019-05-14T23:34:30.489Z,2.00
2019-05-14T23:37:01.245Z,2.40
2019-05-14T23:39:31.651Z,1.97
2019-05-14T23:42:02.082Z,2.60
2019-05-14T23:44:32.451Z,2.20
2019-05-14T23:47:04.386Z,2.57
2019-05-14T23:49:34.626Z,2.37
2019-05-14T23:52:04.924Z,2.10
2019-05-14T23:54:35.280Z,2.33
2019-05-14T23:57:05.709Z,2.30
2019-05-14T23:59:36.281Z,2.30
